createdAt,value
2023-02-12T00:01:43.457Z,57.80
2023-02-12T00:04:12.326Z,58.90
2023-02-12T00:06:41.517Z,55.85
2023-02-12T00:09:10.512Z,53.53
2023-02-12T00:11:39.390Z,57.63
2023-02-12T00:14:08.286Z,68.15
2023-02-12T00:16:37.254Z,69.45
2023-02-12T00:19:10.648Z,54.90
2023-02-12T00:21:39.582Z,56.97
2023-02-12T00:24:08.859Z,57.30
2023-02-12T00:26:38.225Z,58.05
2023-02-12T00:29:07.157Z,58.88
2023-02-12T00:31:36.127Z,58.88
2023-02-12T00:34:05.093Z,58.88
2023-02-12T00:36:34.700Z,73.35
2023-02-12T00:39:03.839Z,76.53
2023-02-12T00:41:32.908Z,62.63
2023-02-12T00:44:01.958Z,60.75
2023-02-12T00:46:30.948Z,57.97
2023-02-12T00:48:59.922Z,71.68
2023-02-12T00:51:28.783Z,81.45
2023-02-12T00:53:57.722Z,72.72
2023-02-12T00:56:26.766Z,80.90
2023-02-12T00:58:55.648Z,86.40
2023-02-12T01:01:24.595Z,93.70
2023-02-12T01:03:53.496Z,67.63
2023-02-12T01:06:22.418Z,58.53
2023-02-12T01:08:54.782Z,61.05
2023-02-12T01:11:23.847Z,59.83
2023-02-12T01:13:52.816Z,57.10
2023-02-12T01:16:24.545Z,56.22
2023-02-12T01:18:55.995Z,50.53
2023-02-12T01:21:30.635Z,57.42
2023-02-12T01:24:00.443Z,55.22
2023-02-12T01:26:30.982Z,52.53
2023-02-12T01:29:02.789Z,53.92
2023-02-12T01:31:34.610Z,48.30
2023-02-12T01:34:03.690Z,47.80
2023-02-12T01:36:33.104Z,47.30
2023-02-12T01:39:04.263Z,50.10
2023-02-12T01:41:37.082Z,61.05
2023-02-12T01:44:16.575Z,63.15
2023-02-12T01:46:47.056Z,50.00
2023-02-12T01:49:39.137Z,52.40
2023-02-12T01:52:21.289Z,48.95
2023-02-12T01:54:52.092Z,55.05
2023-02-12T01:57:21.627Z,50.45
2023-02-12T01:59:54.507Z,48.97
2023-02-12T02:02:23.541Z,57.67
2023-02-12T02:05:03.219Z,55.80
2023-02-12T02:07:32.752Z,48.03
2023-02-12T02:10:03.277Z,47.90
2023-02-12T02:12:51.106Z,53.38
2023-02-12T02:15:20.202Z,60.03
2023-02-12T02:17:57.026Z,47.35
2023-02-12T02:20:57.017Z,49.88
2023-02-12T02:23:49.863Z,52.97
2023-02-12T02:26:49.537Z,52.67
2023-02-12T02:29:36.673Z,49.63
2023-02-12T02:32:16.612Z,51.88
2023-02-12T02:34:57.406Z,50.97
2023-02-12T02:37:30.564Z,50.95
2023-02-12T02:40:14.669Z,48.38
2023-02-12T02:43:12.300Z,41.58
2023-02-12T02:45:53.098Z,46.58
2023-02-12T02:48:35.674Z,43.50
2023-02-12T02:51:30.564Z,44.42
2023-02-12T02:54:22.392Z,41.25
2023-02-12T02:56:54.408Z,43.08
2023-02-12T02:59:32.985Z,41.72
2023-02-12T03:02:10.457Z,43.83
2023-02-12T03:04:52.571Z,41.75
2023-02-12T03:07:23.562Z,41.80
2023-02-12T03:10:01.028Z,39.60
2023-02-12T03:12:37.097Z,39.25
2023-02-12T03:15:22.960Z,40.17
2023-02-12T03:17:53.426Z,38.30
2023-02-12T03:20:47.459Z,43.33
2023-02-12T03:26:14.339Z,34.13
2023-02-12T03:28:43.275Z,37.50
2023-02-12T03:31:26.117Z,47.17
2023-02-12T03:34:20.435Z,34.17
2023-02-12T03:36:55.690Z,28.90
2023-02-12T03:39:27.487Z,31.75
2023-02-12T03:42:07.152Z,34.47
2023-02-12T03:45:04.597Z,33.10
2023-02-12T03:47:58.056Z,35.80
2023-02-12T03:51:06.774Z,36.55
2023-02-12T03:53:35.791Z,33.88
2023-02-12T03:56:14.901Z,33.38
2023-02-12T03:58:45.671Z,29.92
2023-02-12T04:01:15.492Z,30.17
2023-02-12T04:03:45.019Z,31.98
2023-02-12T04:06:26.885Z,30.23
2023-02-12T04:08:58.319Z,27.88
2023-02-12T04:11:36.361Z,29.10
2023-02-12T04:14:23.496Z,30.70
2023-02-12T04:17:01.940Z,28.88
2023-02-12T04:20:10.626Z,29.45
2023-02-12T04:23:02.160Z,33.58
2023-02-12T04:25:40.100Z,30.27
